Arctic Princess — UHTA — position and weather

sailwx.info

Track history (hours):
 
Tides and Currents Weather Stations Pressure Air Temp Water Temp Dewpoint Dewpoint Depression Visibility Wind Speed Wind Dir Waves Ship Positions

Arctic Princess

Last reported at 2017-Dec-07 15:17 UTC. Time now 2017-Dec-14 10:18 UTC.
Position N 68°08' E 012°16'.

Length 69 m; draft 5 m.

Type: Cargo ship. MMSI: 273219900.

Date/timePositionNaut miles runAvg speedWind from/ knotsBaromVisibWave heightAir tempDewpointWater temp
2017-Dec-07 15:17N 68°08' E 012°16'3 8.9
2017-Dec-07 15:00N 68°10' E 012°20'4 8.2
2017-Dec-07 14:30N 68°14' E 012°27'4 8.2
2017-Dec-07 14:00N 68°17' E 012°33'4 8.1
2017-Dec-07 13:30N 68°20' E 012°39'4 8.5
2017-Dec-07 13:00N 68°24' E 012°46'4 8.6
2017-Dec-07 12:30N 68°27' E 012°53'4 8.8
2017-Dec-07 12:00N 68°31' E 013°00'5 8.9
2017-Dec-07 11:30N 68°34' E 013°08'5 9.2
2017-Dec-07 11:00N 68°38' E 013°15'5 9.1
2017-Dec-07 10:30N 68°42' E 013°21'4 8.8
2017-Dec-07 10:00N 68°45' E 013°28'4 8.8
2017-Dec-07 09:30N 68°49' E 013°36'5 9.0
2017-Dec-07 09:00N 68°52' E 013°44'5 9.2
2017-Dec-07 08:30N 68°56' E 013°51'4 9.1
2017-Dec-07 08:00N 68°60' E 013°58'5 8.9
2017-Dec-07 07:29N 69°03' E 014°06'4 8.8
2017-Dec-07 07:00N 69°06' E 014°15'4 8.6
2017-Dec-07 06:30N 69°09' E 014°23'4 8.5
2017-Dec-07 05:59N 69°12' E 014°32'4 8.3
2017-Dec-07 05:30N 69°15' E 014°41'4 8.5
2017-Dec-07 05:00N 69°18' E 014°50'4 7.9
2017-Dec-07 04:30N 69°20' E 014°58'4 7.4
2017-Dec-07 04:00N 69°23' E 015°06'4 7.6
2017-Dec-07 03:30N 69°25' E 015°14'4 8.2
2017-Dec-07 03:00N 69°28' E 015°23'4 8.5
2017-Dec-07 02:30N 69°31' E 015°32'4 8.3
2017-Dec-07 02:00N 69°34' E 015°40'4 8.3
2017-Dec-07 01:30N 69°37' E 015°48'4 8.6
2017-Dec-07 01:00N 69°40' E 015°57'4 8.2
2017-Dec-07 00:30N 69°43' E 016°05'3 6.6
2017-Dec-06 23:59N 69°45' E 016°12'4 7.1
2017-Dec-06 23:30N 69°48' E 016°19'4 7.8
2017-Dec-06 23:00N 69°50' E 016°28'4 8.4
2017-Dec-06 22:29N 69°53' E 016°37'  
2017-Dec-04 10:23N 68°57' E 033°02'0 0.0
2017-Dec-04 09:59N 68°57' E 033°02'0 0.0
2017-Dec-04 09:29N 68°57' E 033°02'0 0.0
2017-Dec-04 08:59N 68°57' E 033°02'0 0.0
2017-Dec-04 08:29N 68°57' E 033°02'0 0.0
2017-Dec-04 07:59N 68°57' E 033°02'0 0.0
2017-Dec-04 07:29N 68°57' E 033°02'0 0.0
2017-Dec-04 06:59N 68°57' E 033°02'0 0.0
2017-Dec-04 06:29N 68°57' E 033°02'0 0.0
2017-Dec-04 05:59N 68°57' E 033°02'0 0.0
2017-Dec-04 05:29N 68°57' E 033°02'0 0.0
2017-Dec-04 04:59N 68°57' E 033°02'0 0.0
2017-Dec-04 04:29N 68°57' E 033°02'0 0.0
2017-Dec-04 03:59N 68°57' E 033°02'0 0.0
2017-Dec-04 03:29N 68°57' E 033°02'0 0.0
2017-Dec-04 02:59N 68°57' E 033°02'0 0.0
2017-Dec-04 02:29N 68°57' E 033°02'0 0.0
2017-Dec-04 01:59N 68°57' E 033°02'0 0.0
2017-Dec-04 01:29N 68°57' E 033°02'0 0.0
2017-Dec-04 00:59N 68°57' E 033°02'0 0.0
2017-Dec-04 00:29N 68°57' E 033°02'0 0.0
2017-Dec-03 23:59N 68°57' E 033°02'0 0.0
2017-Dec-03 23:29N 68°57' E 033°02'0 0.0
2017-Dec-03 22:59N 68°57' E 033°02'0 0.0
2017-Dec-03 22:29N 68°57' E 033°02'0 0.0
2017-Dec-03 21:59N 68°57' E 033°02'0 0.0
2017-Dec-03 21:29N 68°57' E 033°02'0 0.0
2017-Dec-03 20:59N 68°57' E 033°02'0 0.0
2017-Dec-03 20:29N 68°57' E 033°02'0 0.0
2017-Dec-03 19:59N 68°57' E 033°02'0 0.0
2017-Dec-03 19:29N 68°57' E 033°02'0 0.0
2017-Dec-03 18:59N 68°57' E 033°02'0 0.0
2017-Dec-03 18:29N 68°57' E 033°02'0 0.0
2017-Dec-03 17:59N 68°57' E 033°02'0 0.0
2017-Dec-03 17:29N 68°57' E 033°02'0 0.0
2017-Dec-03 16:59N 68°57' E 033°02'0 0.0
2017-Dec-03 16:29N 68°57' E 033°02'0 0.0
2017-Dec-03 15:59N 68°57' E 033°02'0 0.0
2017-Dec-03 15:29N 68°57' E 033°02'0 0.0
2017-Dec-03 14:59N 68°57' E 033°02'0 0.0
2017-Dec-03 14:29N 68°57' E 033°02'0 0.0
2017-Dec-03 13:56N 68°57' E 033°02'0 0.0
2017-Dec-03 13:29N 68°57' E 033°02'0 0.0
2017-Dec-03 12:59N 68°57' E 033°02'0 0.0
2017-Dec-03 12:29N 68°57' E 033°02'0 0.0
2017-Dec-03 11:59N 68°57' E 033°02'0 0.0
2017-Dec-03 11:29N 68°57' E 033°02'0 0.0
2017-Dec-03 10:59N 68°57' E 033°02'0 0.0
2017-Dec-03 10:26N 68°57' E 033°02'0 0.0
2017-Dec-03 09:59N 68°57' E 033°02'0 0.0
2017-Dec-03 09:29N 68°57' E 033°02'0 0.0
2017-Dec-03 08:59N 68°57' E 033°02'0 0.0
2017-Dec-03 08:29N 68°57' E 033°02'0 0.0
2017-Dec-03 07:59N 68°57' E 033°02'0 0.0
2017-Dec-03 07:29N 68°57' E 033°02'0 0.0
2017-Dec-03 06:56N 68°57' E 033°02'0 0.0
2017-Dec-03 06:29N 68°57' E 033°02'0 0.0
2017-Dec-03 05:59N 68°57' E 033°02'0 0.0
2017-Dec-03 05:29N 68°57' E 033°02'0 0.0
2017-Dec-03 04:59N 68°57' E 033°02'0 0.0
2017-Dec-03 04:29N 68°57' E 033°02'0 0.0
2017-Dec-03 03:59N 68°57' E 033°02'0 0.0
2017-Dec-03 03:26N 68°57' E 033°02'0 0.0
2017-Dec-03 02:59N 68°57' E 033°02'0 0.0
2017-Dec-03 02:29N 68°57' E 033°02'0 0.0
2017-Dec-03 01:59N 68°57' E 033°02'0 0.0
2017-Dec-03 01:29N 68°57' E 033°02'0 0.0
2017-Dec-03 00:59N 68°57' E 033°02'0 0.0
2017-Dec-03 00:29N 68°57' E 033°02'0 0.0
2017-Dec-02 23:59N 68°57' E 033°02'0 0.0
2017-Dec-02 23:26N 68°57' E 033°02'0 0.0
2017-Dec-02 22:59N 68°57' E 033°02'0 0.0
2017-Dec-02 22:29N 68°57' E 033°02'0 0.0
2017-Dec-02 21:59N 68°57' E 033°02'0 0.0
2017-Dec-02 21:29N 68°57' E 033°02'0 0.0
2017-Dec-02 20:56N 68°57' E 033°02'0 0.0
2017-Dec-02 20:29N 68°57' E 033°02'0 0.0
2017-Dec-02 19:59N 68°57' E 033°02'0 0.0
2017-Dec-02 19:29N 68°57' E 033°02'0 0.0
2017-Dec-02 18:59N 68°57' E 033°02'0 0.0
2017-Dec-02 18:29N 68°57' E 033°02'0 0.0
2017-Dec-02 17:59N 68°57' E 033°02'0 0.5
2017-Dec-02 17:29N 68°56' E 033°02'0 0.0
2017-Dec-02 16:59N 68°56' E 033°02'0 0.0
2017-Dec-02 16:29N 68°56' E 033°02'0 0.0
2017-Dec-02 15:59N 68°56' E 033°02'0 0.0
2017-Dec-02 15:29N 68°56' E 033°02'0 0.0
2017-Dec-02 14:59N 68°56' E 033°02'0 0.0
2017-Dec-02 14:29N 68°57' E 033°02'0 0.0
2017-Dec-02 13:59N 68°56' E 033°02'0 0.0
2017-Dec-02 13:29N 68°56' E 033°02'0 0.0
2017-Dec-02 12:59N 68°56' E 033°02'0 0.0
2017-Dec-02 12:29N 68°56' E 033°02'0 0.0
2017-Dec-02 11:59N 68°56' E 033°02'0 0.0
2017-Dec-02 11:29N 68°56' E 033°02'0 0.0
2017-Dec-02 10:59N 68°56' E 033°02'0 0.0
2017-Dec-02 10:29N 68°56' E 033°02'0 0.0
2017-Dec-02 09:59N 68°56' E 033°02'0 0.0
2017-Dec-02 09:29N 68°56' E 033°02'0 0.0
2017-Dec-02 08:59N 68°56' E 033°02'0 0.0
2017-Dec-02 08:29N 68°56' E 033°02'0 0.0
2017-Dec-02 07:56N 68°56' E 033°02'0 0.0
2017-Dec-02 07:29N 68°56' E 033°02'0 0.0
2017-Dec-02 06:59N 68°56' E 033°02'0 0.0
2017-Dec-02 06:29N 68°56' E 033°02'0 0.0
2017-Dec-02 05:59N 68°56' E 033°02'0 0.0
2017-Dec-02 05:26N 68°56' E 033°02'0 0.0
2017-Dec-02 04:59N 68°57' E 033°02'0 0.0
2017-Dec-02 04:29N 68°57' E 033°02'0 0.0
2017-Dec-02 03:56N 68°56' E 033°02'0 0.0
2017-Dec-02 03:29N 68°56' E 033°02'0 0.0
2017-Dec-02 02:59N 68°56' E 033°02'0 0.0
2017-Dec-02 02:29N 68°56' E 033°02'0 0.0
2017-Dec-02 01:59N 68°56' E 033°02'0 0.0
2017-Dec-02 01:26N 68°56' E 033°02'0 0.0
2017-Dec-02 00:59N 68°56' E 033°02'0 0.0
2017-Dec-02 00:26N 68°56' E 033°02'0 0.0
2017-Dec-01 23:56N 68°57' E 033°02'0 0.0
2017-Dec-01 23:26N 68°56' E 033°02'0 0.0
2017-Dec-01 22:59N 68°56' E 033°02'0 0.0
2017-Dec-01 22:29N 68°56' E 033°02'0 0.0
2017-Dec-01 21:53N 68°56' E 033°02'0 0.0
2017-Dec-01 21:29N 68°57' E 033°02'0 0.0
2017-Dec-01 20:59N 68°57' E 033°02'0 0.0
2017-Dec-01 20:28N 68°56' E 033°02'0 0.0
2017-Dec-01 19:55N 68°56' E 033°02'0 0.0
2017-Dec-01 19:28N 68°57' E 033°02'0 0.0
2017-Dec-01 18:58N 68°56' E 033°02'0 0.0
2017-Dec-01 18:28N 68°56' E 033°02'0 0.0
2017-Dec-01 17:58N 68°56' E 033°02'0 0.0
2017-Dec-01 17:28N 68°56' E 033°02'0 0.0
2017-Dec-01 16:58N 68°56' E 033°02'0 0.0
2017-Dec-01 16:28N 68°56' E 033°02'0 0.0
2017-Dec-01 15:58N 68°56' E 033°02'0 0.0
2017-Dec-01 15:28N 68°56' E 033°02'0 0.0
2017-Dec-01 14:58N 68°56' E 033°02'0 0.0
2017-Dec-01 14:28N 68°57' E 033°02'0 0.0
2017-Dec-01 13:58N 68°56' E 033°02'0 0.0
2017-Dec-01 13:28N 68°56' E 033°02'0 0.0
2017-Dec-01 12:58N 68°56' E 033°02'0 0.0
2017-Dec-01 12:28N 68°57' E 033°02'0 0.0
2017-Dec-01 11:58N 68°56' E 033°02'0 0.0
2017-Dec-01 11:28N 68°56' E 033°02'0 0.0
2017-Dec-01 10:55N 68°56' E 033°02'0 0.0
2017-Dec-01 10:28N 68°56' E 033°02'0 0.0
2017-Dec-01 09:58N 68°56' E 033°02'0 0.0
2017-Dec-01 09:28N 68°56' E 033°02'0 0.0
2017-Dec-01 08:58N 68°56' E 033°02'0 0.0
2017-Dec-01 08:25N 68°56' E 033°02'0 0.0
2017-Dec-01 07:58N 68°57' E 033°02'0 0.0
2017-Dec-01 07:25N 68°56' E 033°02'0 0.0
2017-Dec-01 06:58N 68°56' E 033°02'0 0.0
2017-Dec-01 06:28N 68°56' E 033°02'0 0.0
2017-Dec-01 05:58N 68°57' E 033°02'0 0.0
2017-Dec-01 05:25N 68°57' E 033°02'0 0.0
2017-Dec-01 04:58N 68°56' E 033°02'0 0.0
2017-Dec-01 04:28N 68°57' E 033°02'0 0.0
2017-Dec-01 03:58N 68°56' E 033°02'0 0.0
2017-Dec-01 03:28N 68°56' E 033°02'0 0.0
2017-Dec-01 02:58N 68°57' E 033°02'0 0.0
2017-Dec-01 02:28N 68°56' E 033°02'0 0.0
2017-Dec-01 01:58N 68°56' E 033°02'0 0.0
2017-Dec-01 01:28N 68°56' E 033°02'0 0.0
2017-Dec-01 00:58N 68°56' E 033°02'0 0.0
2017-Dec-01 00:28N 68°56' E 033°02'0 0.0
2017-Nov-30 23:58N 68°56' E 033°02'0 0.0
2017-Nov-30 23:28N 68°56' E 033°02'0 0.0
2017-Nov-30 22:58N 68°56' E 033°02'0 0.0
2017-Nov-30 22:28N 68°56' E 033°02'0 0.0
2017-Nov-30 21:58N 68°56' E 033°02'0 0.0
2017-Nov-30 21:28N 68°56' E 033°02'0 0.0
2017-Nov-30 20:58N 68°57' E 033°02'0 0.0
2017-Nov-30 20:28N 68°56' E 033°02'0 0.0
2017-Nov-30 19:58N 68°56' E 033°02'0 0.0
2017-Nov-30 19:28N 68°56' E 033°02'0 0.0
2017-Nov-30 18:58N 68°56' E 033°02'0 0.0
2017-Nov-30 18:28N 68°56' E 033°02'0 0.0
2017-Nov-30 17:58N 68°57' E 033°02'0 0.0
2017-Nov-30 17:28N 68°56' E 033°02'0 0.0
2017-Nov-30 16:55N 68°56' E 033°02'0 0.0
2017-Nov-30 16:28N 68°56' E 033°02'0 0.0
2017-Nov-30 15:58N 68°56' E 033°02'0 0.0
2017-Nov-30 15:28N 68°56' E 033°02'0 0.0
2017-Nov-30 14:58N 68°56' E 033°02'0 0.0
2017-Nov-30 14:28N 68°56' E 033°02'0 0.0
2017-Nov-30 13:55N 68°56' E 033°02'0 0.0
2017-Nov-30 13:28N 68°56' E 033°02'0 0.0
2017-Nov-30 12:58N 68°56' E 033°02'0 0.0
2017-Nov-30 12:28N 68°56' E 033°02'0 0.0
2017-Nov-30 11:58N 68°56' E 033°02'0 0.0
2017-Nov-30 11:28N 68°56' E 033°02'0 0.0
2017-Nov-30 10:58N 68°56' E 033°02'0 0.0
2017-Nov-30 10:28N 68°56' E 033°02'0 0.0
2017-Nov-30 09:55N 68°56' E 033°02'0 0.0
2017-Nov-30 09:28N 68°56' E 033°02'0 0.0
2017-Nov-30 08:58N 68°56' E 033°02'0 0.0
2017-Nov-30 08:28N 68°56' E 033°02'0 0.0
2017-Nov-30 07:58N 68°56' E 033°02'0 0.0
2017-Nov-30 07:28N 68°57' E 033°02'0 0.0
2017-Nov-30 06:58N 68°56' E 033°02'0 0.0
2017-Nov-30 06:28N 68°56' E 033°02'0 0.0
2017-Nov-30 05:58N 68°57' E 033°02'0 0.0
2017-Nov-30 05:28N 68°56' E 033°02'0 0.0
2017-Nov-30 04:58N 68°56' E 033°02'0 0.0
2017-Nov-30 04:25N 68°56' E 033°02'0 0.0
2017-Nov-30 03:58N 68°56' E 033°02'0 0.0
2017-Nov-30 03:28N 68°56' E 033°02'0 0.0
2017-Nov-30 02:58N 68°56' E 033°02'0 0.0
2017-Nov-30 02:28N 68°56' E 033°02'0 0.0
2017-Nov-30 01:58N 68°56' E 033°02'0 0.0
2017-Nov-30 01:28N 68°56' E 033°02'0 0.0
2017-Nov-30 00:58N 68°56' E 033°02'0 0.0
2017-Nov-30 00:28N 68°56' E 033°02'0 0.0
2017-Nov-29 23:55N 68°56' E 033°02'0 0.0
2017-Nov-29 23:28N 68°56' E 033°02'0 0.0
2017-Nov-29 22:58N 68°56' E 033°02'0 0.0
2017-Nov-29 22:28N 68°56' E 033°02'0 0.0
2017-Nov-29 21:58N 68°56' E 033°02'0 0.0
2017-Nov-29 21:28N 68°56' E 033°02'0 0.0
2017-Nov-29 20:58N 68°57' E 033°02'0 0.0
2017-Nov-29 15:45N 68°56' E 033°02'0 0.0
2017-Nov-29 15:28N 68°56' E 033°02'0 0.0
2017-Nov-29 14:58N 68°56' E 033°02'0 0.0
2017-Nov-29 14:28N 68°56' E 033°02'0 0.0
2017-Nov-29 13:58N 68°56' E 033°02'0 0.0
2017-Nov-29 13:28N 68°56' E 033°02'0 0.0
2017-Nov-29 12:58N 68°56' E 033°02'0 0.0
2017-Nov-29 12:28N 68°56' E 033°02'0 0.0
2017-Nov-29 11:58N 68°56' E 033°02'0 0.0
2017-Nov-29 11:28N 68°56' E 033°02'0 0.0
2017-Nov-29 10:58N 68°56' E 033°02'0 0.0
2017-Nov-29 10:28N 68°56' E 033°02'0 0.0
2017-Nov-29 09:58N 68°56' E 033°02'0 0.0
2017-Nov-29 09:28N 68°56' E 033°02'0 0.0
2017-Nov-29 08:58N 68°56' E 033°02'0 0.0
2017-Nov-29 08:28N 68°56' E 033°02'0 0.0
2017-Nov-29 07:58N 68°57' E 033°02'0 0.0
2017-Nov-29 07:28N 68°56' E 033°02'0 0.0
2017-Nov-28 22:56N 68°56' E 033°02'0 0.1
2017-Nov-28 22:30N 68°57' E 033°02'1 2.3
2017-Nov-28 22:00N 68°58' E 033°02'3 5.7
2017-Nov-28 21:30N 69°01' E 033°03'108 5.8
2017-Nov-28 02:52N 70°44' E 031°26'  
Track history (hours):
 
Tides and Currents Weather Stations Pressure Air Temp Water Temp Dewpoint Dewpoint Depression Visibility Wind Speed Wind Dir Waves Ship Positions

Arctic Princess

Last reported at 2017-Dec-07 15:17 UTC. Time now 2017-Dec-14 10:18 UTC.
Position N 68°08' E 012°16'.

Length 69 m; draft 5 m.

Type: Cargo ship. MMSI: 273219900.

Date/timePositionNaut miles runAvg speedWind from/ knotsBaromVisibWave heightAir tempDewpointWater temp
2017-Dec-07 15:17N 68°08' E 012°16'3 8.9
2017-Dec-07 15:00N 68°10' E 012°20'4 8.2
2017-Dec-07 14:30N 68°14' E 012°27'4 8.2
2017-Dec-07 14:00N 68°17' E 012°33'4 8.1
2017-Dec-07 13:30N 68°20' E 012°39'4 8.5
2017-Dec-07 13:00N 68°24' E 012°46'4 8.6
2017-Dec-07 12:30N 68°27' E 012°53'4 8.8
2017-Dec-07 12:00N 68°31' E 013°00'5 8.9
2017-Dec-07 11:30N 68°34' E 013°08'5 9.2
2017-Dec-07 11:00N 68°38' E 013°15'5 9.1
2017-Dec-07 10:30N 68°42' E 013°21'4 8.8
2017-Dec-07 10:00N 68°45' E 013°28'4 8.8
2017-Dec-07 09:30N 68°49' E 013°36'5 9.0
2017-Dec-07 09:00N 68°52' E 013°44'5 9.2
2017-Dec-07 08:30N 68°56' E 013°51'4 9.1
2017-Dec-07 08:00N 68°60' E 013°58'5 8.9
2017-Dec-07 07:29N 69°03' E 014°06'4 8.8
2017-Dec-07 07:00N 69°06' E 014°15'4 8.6
2017-Dec-07 06:30N 69°09' E 014°23'4 8.5
2017-Dec-07 05:59N 69°12' E 014°32'4 8.3
2017-Dec-07 05:30N 69°15' E 014°41'4 8.5
2017-Dec-07 05:00N 69°18' E 014°50'4 7.9
2017-Dec-07 04:30N 69°20' E 014°58'4 7.4
2017-Dec-07 04:00N 69°23' E 015°06'4 7.6
2017-Dec-07 03:30N 69°25' E 015°14'4 8.2
2017-Dec-07 03:00N 69°28' E 015°23'4 8.5
2017-Dec-07 02:30N 69°31' E 015°32'4 8.3
2017-Dec-07 02:00N 69°34' E 015°40'4 8.3
2017-Dec-07 01:30N 69°37' E 015°48'4 8.6
2017-Dec-07 01:00N 69°40' E 015°57'4 8.2
2017-Dec-07 00:30N 69°43' E 016°05'3 6.6
2017-Dec-06 23:59N 69°45' E 016°12'4 7.1
2017-Dec-06 23:30N 69°48' E 016°19'4 7.8
2017-Dec-06 23:00N 69°50' E 016°28'4 8.4
2017-Dec-06 22:29N 69°53' E 016°37'  
2017-Dec-04 10:23N 68°57' E 033°02'0 0.0
2017-Dec-04 09:59N 68°57' E 033°02'0 0.0
2017-Dec-04 09:29N 68°57' E 033°02'0 0.0
2017-Dec-04 08:59N 68°57' E 033°02'0 0.0
2017-Dec-04 08:29N 68°57' E 033°02'0 0.0
2017-Dec-04 07:59N 68°57' E 033°02'0 0.0
2017-Dec-04 07:29N 68°57' E 033°02'0 0.0
2017-Dec-04 06:59N 68°57' E 033°02'0 0.0
2017-Dec-04 06:29N 68°57' E 033°02'0 0.0
2017-Dec-04 05:59N 68°57' E 033°02'0 0.0
2017-Dec-04 05:29N 68°57' E 033°02'0 0.0
2017-Dec-04 04:59N 68°57' E 033°02'0 0.0
2017-Dec-04 04:29N 68°57' E 033°02'0 0.0
2017-Dec-04 03:59N 68°57' E 033°02'0 0.0
2017-Dec-04 03:29N 68°57' E 033°02'0 0.0
2017-Dec-04 02:59N 68°57' E 033°02'0 0.0
2017-Dec-04 02:29N 68°57' E 033°02'0 0.0
2017-Dec-04 01:59N 68°57' E 033°02'0 0.0
2017-Dec-04 01:29N 68°57' E 033°02'0 0.0
2017-Dec-04 00:59N 68°57' E 033°02'0 0.0
2017-Dec-04 00:29N 68°57' E 033°02'0 0.0
2017-Dec-03 23:59N 68°57' E 033°02'0 0.0
2017-Dec-03 23:29N 68°57' E 033°02'0 0.0
2017-Dec-03 22:59N 68°57' E 033°02'0 0.0
2017-Dec-03 22:29N 68°57' E 033°02'0 0.0
2017-Dec-03 21:59N 68°57' E 033°02'0 0.0
2017-Dec-03 21:29N 68°57' E 033°02'0 0.0
2017-Dec-03 20:59N 68°57' E 033°02'0 0.0
2017-Dec-03 20:29N 68°57' E 033°02'0 0.0
2017-Dec-03 19:59N 68°57' E 033°02'0 0.0
2017-Dec-03 19:29N 68°57' E 033°02'0 0.0
2017-Dec-03 18:59N 68°57' E 033°02'0 0.0
2017-Dec-03 18:29N 68°57' E 033°02'0 0.0
2017-Dec-03 17:59N 68°57' E 033°02'0 0.0
2017-Dec-03 17:29N 68°57' E 033°02'0 0.0
2017-Dec-03 16:59N 68°57' E 033°02'0 0.0
2017-Dec-03 16:29N 68°57' E 033°02'0 0.0
2017-Dec-03 15:59N 68°57' E 033°02'0 0.0
2017-Dec-03 15:29N 68°57' E 033°02'0 0.0
2017-Dec-03 14:59N 68°57' E 033°02'0 0.0
2017-Dec-03 14:29N 68°57' E 033°02'0 0.0
2017-Dec-03 13:56N 68°57' E 033°02'0 0.0
2017-Dec-03 13:29N 68°57' E 033°02'0 0.0
2017-Dec-03 12:59N 68°57' E 033°02'0 0.0
2017-Dec-03 12:29N 68°57' E 033°02'0 0.0
2017-Dec-03 11:59N 68°57' E 033°02'0 0.0
2017-Dec-03 11:29N 68°57' E 033°02'0 0.0
2017-Dec-03 10:59N 68°57' E 033°02'0 0.0
2017-Dec-03 10:26N 68°57' E 033°02'0 0.0
2017-Dec-03 09:59N 68°57' E 033°02'0 0.0
2017-Dec-03 09:29N 68°57' E 033°02'0 0.0
2017-Dec-03 08:59N 68°57' E 033°02'0 0.0
2017-Dec-03 08:29N 68°57' E 033°02'0 0.0
2017-Dec-03 07:59N 68°57' E 033°02'0 0.0
2017-Dec-03 07:29N 68°57' E 033°02'0 0.0
2017-Dec-03 06:56N 68°57' E 033°02'0 0.0
2017-Dec-03 06:29N 68°57' E 033°02'0 0.0
2017-Dec-03 05:59N 68°57' E 033°02'0 0.0
2017-Dec-03 05:29N 68°57' E 033°02'0 0.0
2017-Dec-03 04:59N 68°57' E 033°02'0 0.0
2017-Dec-03 04:29N 68°57' E 033°02'0 0.0
2017-Dec-03 03:59N 68°57' E 033°02'0 0.0
2017-Dec-03 03:26N 68°57' E 033°02'0 0.0
2017-Dec-03 02:59N 68°57' E 033°02'0 0.0
2017-Dec-03 02:29N 68°57' E 033°02'0 0.0
2017-Dec-03 01:59N 68°57' E 033°02'0 0.0
2017-Dec-03 01:29N 68°57' E 033°02'0 0.0
2017-Dec-03 00:59N 68°57' E 033°02'0 0.0
2017-Dec-03 00:29N 68°57' E 033°02'0 0.0
2017-Dec-02 23:59N 68°57' E 033°02'0 0.0
2017-Dec-02 23:26N 68°57' E 033°02'0 0.0
2017-Dec-02 22:59N 68°57' E 033°02'0 0.0
2017-Dec-02 22:29N 68°57' E 033°02'0 0.0
2017-Dec-02 21:59N 68°57' E 033°02'0 0.0
2017-Dec-02 21:29N 68°57' E 033°02'0 0.0
2017-Dec-02 20:56N 68°57' E 033°02'0 0.0
2017-Dec-02 20:29N 68°57' E 033°02'0 0.0
2017-Dec-02 19:59N 68°57' E 033°02'0 0.0
2017-Dec-02 19:29N 68°57' E 033°02'0 0.0
2017-Dec-02 18:59N 68°57' E 033°02'0 0.0
2017-Dec-02 18:29N 68°57' E 033°02'0 0.0
2017-Dec-02 17:59N 68°57' E 033°02'0 0.5
2017-Dec-02 17:29N 68°56' E 033°02'0 0.0
2017-Dec-02 16:59N 68°56' E 033°02'0 0.0
2017-Dec-02 16:29N 68°56' E 033°02'0 0.0
2017-Dec-02 15:59N 68°56' E 033°02'0 0.0
2017-Dec-02 15:29N 68°56' E 033°02'0 0.0
2017-Dec-02 14:59N 68°56' E 033°02'0 0.0
2017-Dec-02 14:29N 68°57' E 033°02'0 0.0
2017-Dec-02 13:59N 68°56' E 033°02'0 0.0
2017-Dec-02 13:29N 68°56' E 033°02'0 0.0
2017-Dec-02 12:59N 68°56' E 033°02'0 0.0
2017-Dec-02 12:29N 68°56' E 033°02'0 0.0
2017-Dec-02 11:59N 68°56' E 033°02'0 0.0
2017-Dec-02 11:29N 68°56' E 033°02'0 0.0
2017-Dec-02 10:59N 68°56' E 033°02'0 0.0
2017-Dec-02 10:29N 68°56' E 033°02'0 0.0
2017-Dec-02 09:59N 68°56' E 033°02'0 0.0
2017-Dec-02 09:29N 68°56' E 033°02'0 0.0
2017-Dec-02 08:59N 68°56' E 033°02'0 0.0
2017-Dec-02 08:29N 68°56' E 033°02'0 0.0
2017-Dec-02 07:56N 68°56' E 033°02'0 0.0
2017-Dec-02 07:29N 68°56' E 033°02'0 0.0
2017-Dec-02 06:59N 68°56' E 033°02'0 0.0
2017-Dec-02 06:29N 68°56' E 033°02'0 0.0
2017-Dec-02 05:59N 68°56' E 033°02'0 0.0
2017-Dec-02 05:26N 68°56' E 033°02'0 0.0
2017-Dec-02 04:59N 68°57' E 033°02'0 0.0
2017-Dec-02 04:29N 68°57' E 033°02'0 0.0
2017-Dec-02 03:56N 68°56' E 033°02'0 0.0
2017-Dec-02 03:29N 68°56' E 033°02'0 0.0
2017-Dec-02 02:59N 68°56' E 033°02'0 0.0
2017-Dec-02 02:29N 68°56' E 033°02'0 0.0
2017-Dec-02 01:59N 68°56' E 033°02'0 0.0
2017-Dec-02 01:26N 68°56' E 033°02'0 0.0
2017-Dec-02 00:59N 68°56' E 033°02'0 0.0
2017-Dec-02 00:26N 68°56' E 033°02'0 0.0
2017-Dec-01 23:56N 68°57' E 033°02'0 0.0
2017-Dec-01 23:26N 68°56' E 033°02'0 0.0
2017-Dec-01 22:59N 68°56' E 033°02'0 0.0
2017-Dec-01 22:29N 68°56' E 033°02'0 0.0
2017-Dec-01 21:53N 68°56' E 033°02'0 0.0
2017-Dec-01 21:29N 68°57' E 033°02'0 0.0
2017-Dec-01 20:59N 68°57' E 033°02'0 0.0
2017-Dec-01 20:28N 68°56' E 033°02'0 0.0
2017-Dec-01 19:55N 68°56' E 033°02'0 0.0
2017-Dec-01 19:28N 68°57' E 033°02'0 0.0
2017-Dec-01 18:58N 68°56' E 033°02'0 0.0
2017-Dec-01 18:28N 68°56' E 033°02'0 0.0
2017-Dec-01 17:58N 68°56' E 033°02'0 0.0
2017-Dec-01 17:28N 68°56' E 033°02'0 0.0
2017-Dec-01 16:58N 68°56' E 033°02'0 0.0
2017-Dec-01 16:28N 68°56' E 033°02'0 0.0
2017-Dec-01 15:58N 68°56' E 033°02'0 0.0
2017-Dec-01 15:28N 68°56' E 033°02'0 0.0
2017-Dec-01 14:58N 68°56' E 033°02'0 0.0
2017-Dec-01 14:28N 68°57' E 033°02'0 0.0
2017-Dec-01 13:58N 68°56' E 033°02'0 0.0
2017-Dec-01 13:28N 68°56' E 033°02'0 0.0
2017-Dec-01 12:58N 68°56' E 033°02'0 0.0
2017-Dec-01 12:28N 68°57' E 033°02'0 0.0
2017-Dec-01 11:58N 68°56' E 033°02'0 0.0
2017-Dec-01 11:28N 68°56' E 033°02'0 0.0
2017-Dec-01 10:55N 68°56' E 033°02'0 0.0
2017-Dec-01 10:28N 68°56' E 033°02'0 0.0
2017-Dec-01 09:58N 68°56' E 033°02'0 0.0
2017-Dec-01 09:28N 68°56' E 033°02'0 0.0
2017-Dec-01 08:58N 68°56' E 033°02'0 0.0
2017-Dec-01 08:25N 68°56' E 033°02'0 0.0
2017-Dec-01 07:58N 68°57' E 033°02'0 0.0
2017-Dec-01 07:25N 68°56' E 033°02'0 0.0
2017-Dec-01 06:58N 68°56' E 033°02'0 0.0
2017-Dec-01 06:28N 68°56' E 033°02'0 0.0
2017-Dec-01 05:58N 68°57' E 033°02'0 0.0
2017-Dec-01 05:25N 68°57' E 033°02'0 0.0
2017-Dec-01 04:58N 68°56' E 033°02'0 0.0
2017-Dec-01 04:28N 68°57' E 033°02'0 0.0
2017-Dec-01 03:58N 68°56' E 033°02'0 0.0
2017-Dec-01 03:28N 68°56' E 033°02'0 0.0
2017-Dec-01 02:58N 68°57' E 033°02'0 0.0
2017-Dec-01 02:28N 68°56' E 033°02'0 0.0
2017-Dec-01 01:58N 68°56' E 033°02'0 0.0
2017-Dec-01 01:28N 68°56' E 033°02'0 0.0
2017-Dec-01 00:58N 68°56' E 033°02'0 0.0
2017-Dec-01 00:28N 68°56' E 033°02'0 0.0
2017-Nov-30 23:58N 68°56' E 033°02'0 0.0
2017-Nov-30 23:28N 68°56' E 033°02'0 0.0
2017-Nov-30 22:58N 68°56' E 033°02'0 0.0
2017-Nov-30 22:28N 68°56' E 033°02'0 0.0
2017-Nov-30 21:58N 68°56' E 033°02'0 0.0
2017-Nov-30 21:28N 68°56' E 033°02'0 0.0
2017-Nov-30 20:58N 68°57' E 033°02'0 0.0
2017-Nov-30 20:28N 68°56' E 033°02'0 0.0
2017-Nov-30 19:58N 68°56' E 033°02'0 0.0
2017-Nov-30 19:28N 68°56' E 033°02'0 0.0
2017-Nov-30 18:58N 68°56' E 033°02'0 0.0
2017-Nov-30 18:28N 68°56' E 033°02'0 0.0
2017-Nov-30 17:58N 68°57' E 033°02'0 0.0
2017-Nov-30 17:28N 68°56' E 033°02'0 0.0
2017-Nov-30 16:55N 68°56' E 033°02'0 0.0
2017-Nov-30 16:28N 68°56' E 033°02'0 0.0
2017-Nov-30 15:58N 68°56' E 033°02'0 0.0
2017-Nov-30 15:28N 68°56' E 033°02'0 0.0
2017-Nov-30 14:58N 68°56' E 033°02'0 0.0
2017-Nov-30 14:28N 68°56' E 033°02'0 0.0
2017-Nov-30 13:55N 68°56' E 033°02'0 0.0
2017-Nov-30 13:28N 68°56' E 033°02'0 0.0
2017-Nov-30 12:58N 68°56' E 033°02'0 0.0
2017-Nov-30 12:28N 68°56' E 033°02'0 0.0
2017-Nov-30 11:58N 68°56' E 033°02'0 0.0
2017-Nov-30 11:28N 68°56' E 033°02'0 0.0
2017-Nov-30 10:58N 68°56' E 033°02'0 0.0
2017-Nov-30 10:28N 68°56' E 033°02'0 0.0
2017-Nov-30 09:55N 68°56' E 033°02'0 0.0
2017-Nov-30 09:28N 68°56' E 033°02'0 0.0
2017-Nov-30 08:58N 68°56' E 033°02'0 0.0
2017-Nov-30 08:28N 68°56' E 033°02'0 0.0
2017-Nov-30 07:58N 68°56' E 033°02'0 0.0
2017-Nov-30 07:28N 68°57' E 033°02'0 0.0
2017-Nov-30 06:58N 68°56' E 033°02'0 0.0
2017-Nov-30 06:28N 68°56' E 033°02'0 0.0
2017-Nov-30 05:58N 68°57' E 033°02'0 0.0
2017-Nov-30 05:28N 68°56' E 033°02'0 0.0
2017-Nov-30 04:58N 68°56' E 033°02'0 0.0
2017-Nov-30 04:25N 68°56' E 033°02'0 0.0
2017-Nov-30 03:58N 68°56' E 033°02'0 0.0
2017-Nov-30 03:28N 68°56' E 033°02'0 0.0
2017-Nov-30 02:58N 68°56' E 033°02'0 0.0
2017-Nov-30 02:28N 68°56' E 033°02'0 0.0
2017-Nov-30 01:58N 68°56' E 033°02'0 0.0
2017-Nov-30 01:28N 68°56' E 033°02'0 0.0
2017-Nov-30 00:58N 68°56' E 033°02'0 0.0
2017-Nov-30 00:28N 68°56' E 033°02'0 0.0
2017-Nov-29 23:55N 68°56' E 033°02'0 0.0
2017-Nov-29 23:28N 68°56' E 033°02'0 0.0
2017-Nov-29 22:58N 68°56' E 033°02'0 0.0
2017-Nov-29 22:28N 68°56' E 033°02'0 0.0
2017-Nov-29 21:58N 68°56' E 033°02'0 0.0
2017-Nov-29 21:28N 68°56' E 033°02'0 0.0
2017-Nov-29 20:58N 68°57' E 033°02'0 0.0
2017-Nov-29 15:45N 68°56' E 033°02'0 0.0
2017-Nov-29 15:28N 68°56' E 033°02'0 0.0
2017-Nov-29 14:58N 68°56' E 033°02'0 0.0
2017-Nov-29 14:28N 68°56' E 033°02'0 0.0
2017-Nov-29 13:58N 68°56' E 033°02'0 0.0
2017-Nov-29 13:28N 68°56' E 033°02'0 0.0
2017-Nov-29 12:58N 68°56' E 033°02'0 0.0
2017-Nov-29 12:28N 68°56' E 033°02'0 0.0
2017-Nov-29 11:58N 68°56' E 033°02'0 0.0
2017-Nov-29 11:28N 68°56' E 033°02'0 0.0
2017-Nov-29 10:58N 68°56' E 033°02'0 0.0
2017-Nov-29 10:28N 68°56' E 033°02'0 0.0
2017-Nov-29 09:58N 68°56' E 033°02'0 0.0
2017-Nov-29 09:28N 68°56' E 033°02'0 0.0
2017-Nov-29 08:58N 68°56' E 033°02'0 0.0
2017-Nov-29 08:28N 68°56' E 033°02'0 0.0
2017-Nov-29 07:58N 68°57' E 033°02'0 0.0
2017-Nov-29 07:28N 68°56' E 033°02'0 0.0
2017-Nov-28 22:56N 68°56' E 033°02'0 0.1
2017-Nov-28 22:30N 68°57' E 033°02'1 2.3
2017-Nov-28 22:00N 68°58' E 033°02'3 5.7
2017-Nov-28 21:30N 69°01' E 033°03'108 5.8
2017-Nov-28 02:52N 70°44' E 031°26'  

Dump ship's entire track history